DataTemp.
Ø
Temp.
Max
Temp.
Min
UmiditàPressionePioggiaVento
Ø
Vento
dir. Ø
Vento
Max
Indice UV
Max
20.02.2020 00:007.2°C7.3°C7.0°C25.0%1023.5hPa0.0mm1.5km/hWSW4.7km/h0uvi
20.02.2020 00:056.8°C6.9°C6.7°C25.0%1023.0hPa0.0mm2.1km/hNW5.0km/h0uvi
20.02.2020 00:106.3°C6.6°C6.0°C25.0%1023.0hPa0.0mm2.4km/hNW4.3km/h0uvi
20.02.2020 00:155.8°C5.9°C5.7°C25.0%1023.7hPa0.0mm1.7km/hSSW4.3km/h0uvi
20.02.2020 00:205.6°C5.6°C5.5°C25.0%1024.0hPa0.0mm0.4km/hWNW2.5km/h0uvi
20.02.2020 00:255.3°C5.4°C5.3°C25.0%1024.0hPa0.0mm1.7km/hNW4.0km/h0uvi
20.02.2020 00:305.2°C5.3°C5.1°C25.0%1024.0hPa0.0mm1.8km/hWSW4.7km/h0uvi
20.02.2020 00:355.0°C5.1°C5.0°C25.0%1024.0hPa0.0mm2.8km/hSSW5.0km/h0uvi
20.02.2020 00:404.9°C5.0°C4.9°C25.0%1024.0hPa0.0mm2.9km/hWSW3.2km/h0uvi
20.02.2020 00:454.9°C4.9°C4.9°C25.0%1024.7hPa0.0mm0.8km/hWSW3.6km/h0uvi
20.02.2020 00:504.9°C4.9°C4.9°C25.0%1025.0hPa0.0mm2.1km/hWSW3.6km/h0uvi
20.02.2020 00:554.8°C4.8°C4.7°C25.0%1025.0hPa0.0mm0.5km/hWSW3.2km/h0uvi
20.02.2020 01:004.5°C4.6°C4.4°C25.0%1025.0hPa0.0mm1.1km/hWNW4.0km/h0uvi
20.02.2020 01:054.3°C4.4°C4.3°C25.0%1025.0hPa0.0mm4.4km/hSSW6.1km/h0uvi
20.02.2020 01:104.2°C4.2°C4.2°C25.0%1025.0hPa0.0mm3.8km/hSSW5.8km/h0uvi
20.02.2020 01:154.1°C4.1°C4.1°C25.0%1025.7hPa0.0mm0.5km/hSSW2.5km/h0uvi
20.02.2020 01:204.1°C4.1°C4.0°C25.0%1026.0hPa0.0mm1.4km/hWSW4.3km/h0uvi
20.02.2020 01:254.0°C4.0°C3.9°C25.0%1026.0hPa0.0mm3.4km/hSSW5.4km/h0uvi
20.02.2020 01:303.8°C3.9°C3.8°C25.0%1026.0hPa0.0mm2.9km/hSSW6.8km/h0uvi
20.02.2020 01:353.9°C3.9°C3.8°C25.0%1026.0hPa0.0mm2.3km/hSSW4.7km/h0uvi
20.02.2020 01:403.9°C3.9°C3.8°C25.0%1026.0hPa0.0mm3.6km/hSSW5.0km/h0uvi
20.02.2020 01:454.0°C4.0°C3.9°C25.0%1026.0hPa0.0mm3.3km/hWSW6.1km/h0uvi
20.02.2020 01:504.0°C4.1°C4.0°C25.0%1026.0hPa0.0mm3.6km/hSSW9.0km/h0uvi
20.02.2020 01:554.1°C4.1°C4.1°C25.0%1026.0hPa0.0mm5.1km/hSSW5.8km/h0uvi
20.02.2020 02:004.0°C4.0°C4.0°C25.0%1026.5hPa0.0mm5.5km/hSSW12.2km/h0uvi
20.02.2020 02:054.3°C4.4°C4.2°C25.0%1027.0hPa0.0mm6.0km/hSSW12.6km/h0uvi
20.02.2020 02:104.5°C4.6°C4.4°C25.0%1027.0hPa0.0mm4.1km/hWSW9.7km/h0uvi
20.02.2020 02:154.6°C4.6°C4.6°C25.0%1026.4hPa0.0mm2.8km/hSSW5.8km/h0uvi
20.02.2020 02:204.6°C4.6°C4.6°C25.0%1026.0hPa0.0mm2.8km/hSSW6.8km/h0uvi
20.02.2020 02:254.4°C4.5°C4.3°C25.0%1026.0hPa0.0mm2.1km/hWSW5.4km/h0uvi
20.02.2020 02:304.1°C4.3°C4.0°C25.0%1026.0hPa0.0mm1.5km/hSSW4.7km/h0uvi
20.02.2020 02:353.9°C3.9°C3.9°C25.0%1026.0hPa0.0mm3.2km/hS5.8km/h0uvi
20.02.2020 02:403.9°C3.9°C3.9°C25.0%1026.0hPa0.0mm1.1km/hNW4.7km/h0uvi
20.02.2020 02:453.9°C3.9°C3.9°C25.0%1025.3hPa0.0mm0.6km/hSSE1.8km/h0uvi
20.02.2020 02:503.9°C3.9°C3.8°C25.0%1025.0hPa0.0mm0.0km/hSSE1.4km/h0uvi
20.02.2020 02:553.6°C3.7°C3.6°C25.0%1025.0hPa0.0mm0.0km/hSSE2.2km/h0uvi
20.02.2020 03:003.5°C3.5°C3.4°C25.0%1025.8hPa0.0mm0.0km/hSSW2.5km/h0uvi
20.02.2020 03:053.3°C3.4°C3.2°C25.0%1026.0hPa0.0mm1.3km/hSSW3.2km/h0uvi
20.02.2020 03:103.1°C3.1°C3.0°C25.0%1026.0hPa0.0mm0.8km/hSSW3.6km/h0uvi
20.02.2020 03:153.0°C3.0°C2.9°C25.3%1026.0hPa0.0mm0.0km/hSSW0.0km/h0uvi
20.02.2020 03:202.8°C2.9°C2.7°C26.5%1026.0hPa0.0mm1.1km/hSSW5.0km/h0uvi
20.02.2020 03:252.5°C2.6°C2.5°C28.0%1026.0hPa0.0mm4.1km/hSSE7.6km/h0uvi
20.02.2020 03:302.6°C2.6°C2.6°C28.0%1026.0hPa0.0mm3.3km/hSSW5.0km/h0uvi
20.02.2020 03:352.6°C2.6°C2.5°C28.0%1026.0hPa0.0mm2.4km/hSSW4.0km/h0uvi
20.02.2020 03:402.5°C2.5°C2.4°C28.0%1026.0hPa0.0mm2.1km/hSSW3.2km/h0uvi
20.02.2020 03:452.4°C2.4°C2.3°C28.0%1026.0hPa0.0mm1.5km/hWSW4.3km/h0uvi
20.02.2020 03:502.3°C2.3°C2.2°C28.0%1026.0hPa0.0mm1.0km/hWSW2.5km/h0uvi
20.02.2020 03:552.0°C2.1°C2.0°C28.0%1026.0hPa0.0mm2.0km/hSSW3.2km/h0uvi
20.02.2020 04:002.0°C2.0°C2.0°C28.0%1026.0hPa0.0mm2.0km/hWSW4.0km/h0uvi
20.02.2020 04:052.0°C2.0°C1.9°C30.0%1026.0hPa0.0mm0.7km/hWSW2.5km/h0uvi
20.02.2020 04:101.9°C1.9°C1.8°C31.0%1026.0hPa0.0mm0.0km/hWSW1.4km/h0uvi
20.02.2020 04:151.7°C1.8°C1.7°C31.0%1025.4hPa0.0mm0.0km/hWSW0.0km/h0uvi
20.02.2020 04:201.6°C1.7°C1.5°C31.0%1025.0hPa0.0mm0.0km/hWSW1.4km/h0uvi
20.02.2020 04:251.4°C1.5°C1.4°C33.2%1025.0hPa0.0mm1.1km/hSSW3.6km/h0uvi
20.02.2020 04:301.4°C1.4°C1.4°C34.0%1025.8hPa0.0mm0.0km/hWSW1.4km/h0uvi
20.02.2020 04:351.5°C1.5°C1.5°C34.0%1026.0hPa0.0mm1.0km/hSSW5.0km/h0uvi
20.02.2020 04:401.6°C1.6°C1.6°C34.0%1026.0hPa0.0mm1.6km/hWSW2.5km/h0uvi
20.02.2020 04:451.5°C1.5°C1.4°C34.0%1026.0hPa0.0mm1.7km/hWSW4.3km/h0uvi
20.02.2020 04:501.4°C1.4°C1.4°C34.0%1026.0hPa0.0mm0.6km/hWSW1.8km/h0uvi
20.02.2020 04:551.3°C1.3°C1.3°C34.0%1026.0hPa0.0mm0.0km/hWSW2.2km/h0uvi
20.02.2020 05:001.2°C1.3°C1.2°C34.0%1026.0hPa0.0mm0.2km/hNW2.2km/h0uvi
20.02.2020 05:051.2°C1.2°C1.2°C34.5%1026.0hPa0.0mm1.7km/hSSW3.2km/h0uvi
20.02.2020 05:101.2°C1.2°C1.2°C35.0%1026.0hPa0.0mm1.3km/hSSW3.2km/h0uvi
20.02.2020 05:151.3°C1.3°C1.2°C35.0%1026.0hPa0.0mm1.6km/hSSW5.0km/h0uvi
20.02.2020 05:201.4°C1.4°C1.4°C35.0%1026.0hPa0.0mm0.0km/hWSW2.5km/h0uvi
20.02.2020 05:251.4°C1.4°C1.3°C35.0%1026.0hPa0.0mm0.6km/hWSW3.2km/h0uvi
20.02.2020 05:301.4°C1.4°C1.4°C35.0%1026.5hPa0.0mm0.4km/hNW2.2km/h0uvi
20.02.2020 05:351.3°C1.3°C1.3°C35.0%1027.0hPa0.0mm0.4km/hWSW2.5km/h0uvi
20.02.2020 05:401.2°C1.2°C1.1°C35.0%1027.0hPa0.0mm0.4km/hWSW3.6km/h0uvi
20.02.2020 05:451.1°C1.1°C1.1°C35.0%1027.0hPa0.0mm0.3km/hSSW2.2km/h0uvi
20.02.2020 05:501.0°C1.0°C1.0°C35.0%1027.0hPa0.0mm0.3km/hSSW2.2km/h0uvi
20.02.2020 05:550.8°C0.9°C0.8°C36.0%1027.0hPa0.0mm0.0km/hWSW1.4km/h0uvi
20.02.2020 06:000.7°C0.8°C0.6°C36.0%1027.0hPa0.0mm0.5km/hWSW1.8km/h0uvi
20.02.2020 06:050.6°C0.6°C0.5°C36.4%1027.0hPa0.0mm0.9km/hWSW2.5km/h0uvi
20.02.2020 06:100.5°C0.5°C0.5°C37.2%1027.0hPa0.0mm0.5km/hWSW3.2km/h0uvi
20.02.2020 06:150.5°C0.5°C0.5°C38.0%1027.0hPa0.0mm0.8km/hWSW2.2km/h0uvi
20.02.2020 06:200.5°C0.5°C0.5°C38.0%1027.0hPa0.0mm0.0km/hWSW0.0km/h0uvi
20.02.2020 06:250.4°C0.4°C0.4°C38.0%1027.0hPa0.0mm0.5km/hWSW2.5km/h0uvi
20.02.2020 06:300.3°C0.4°C0.3°C38.0%1027.0hPa0.0mm0.9km/hWSW3.2km/h0uvi
20.02.2020 06:350.2°C0.3°C0.2°C40.5%1027.0hPa0.0mm1.3km/hSSW3.2km/h0uvi
20.02.2020 06:400.2°C0.2°C0.2°C41.3%1027.0hPa0.0mm1.4km/hSSW3.2km/h0uvi
20.02.2020 06:450.2°C0.2°C0.2°C42.0%1027.0hPa0.0mm1.0km/hSSW3.2km/h0uvi
20.02.2020 06:500.2°C0.2°C0.1°C42.0%1027.0hPa0.0mm0.0km/hWNW2.2km/h0uvi
20.02.2020 06:550.2°C0.2°C0.1°C42.0%1027.0hPa0.0mm0.7km/hWSW2.5km/h0uvi
20.02.2020 07:000.2°C0.2°C0.2°C42.0%1027.0hPa0.0mm0.2km/hWSW0.0km/h0uvi
20.02.2020 07:050.2°C0.3°C0.2°C42.0%1027.0hPa0.0mm0.6km/hWSW3.2km/h0uvi
20.02.2020 07:100.3°C0.3°C0.3°C42.0%1027.0hPa0.0mm1.9km/hWSW4.0km/h0uvi
20.02.2020 07:150.4°C0.4°C0.3°C42.0%1027.4hPa0.0mm1.6km/hWSW4.0km/h0uvi
20.02.2020 07:200.4°C0.4°C0.4°C42.5%1028.0hPa0.0mm1.6km/hWSW4.0km/h0uvi
20.02.2020 07:250.4°C0.4°C0.4°C43.0%1028.0hPa0.0mm1.9km/hSSW4.0km/h0uvi
20.02.2020 07:300.4°C0.4°C0.4°C43.0%1028.0hPa0.0mm0.0km/hWSW1.4km/h0uvi
20.02.2020 07:350.4°C0.5°C0.4°C43.0%1028.0hPa0.0mm0.0km/hWSW1.8km/h0uvi
20.02.2020 07:400.6°C0.6°C0.5°C43.0%1028.0hPa0.0mm0.7km/hWSW2.2km/h0uvi
20.02.2020 07:450.7°C0.7°C0.6°C43.0%1028.0hPa0.0mm1.1km/hSSW2.2km/h0uvi
20.02.2020 07:500.7°C0.7°C0.7°C43.0%1028.0hPa0.0mm0.6km/hSSW2.5km/h0uvi
20.02.2020 07:550.8°C0.8°C0.7°C43.0%1028.0hPa0.0mm0.6km/hSSW2.2km/h0uvi
20.02.2020 08:000.9°C1.0°C0.9°C43.0%1028.0hPa0.0mm1.1km/hWSW2.2km/h0uvi
20.02.2020 08:051.0°C1.1°C1.0°C43.0%1028.0hPa0.0mm0.3km/hWSW2.2km/h0uvi
20.02.2020 08:101.1°C1.2°C1.1°C43.0%1028.0hPa0.0mm0.0km/hWSW2.2km/h0uvi
20.02.2020 08:151.3°C1.3°C1.2°C43.0%1028.0hPa0.0mm0.0km/hWSW0.0km/h0uvi
20.02.2020 08:201.3°C1.3°C1.3°C43.0%1028.0hPa0.0mm0.1km/hWNW2.5km/h0uvi
20.02.2020 08:251.4°C1.4°C1.4°C43.0%1028.0hPa0.0mm0.0km/hWNW1.4km/h0uvi
20.02.2020 08:301.5°C1.6°C1.5°C43.0%1028.0hPa0.0mm0.0km/hWSW0.0km/h0uvi
20.02.2020 08:351.6°C1.7°C1.6°C43.0%1028.0hPa0.0mm0.8km/hWSW3.2km/h0uvi
20.02.2020 08:401.8°C1.9°C1.7°C43.0%1028.0hPa0.0mm0.8km/hWSW3.6km/h0uvi
20.02.2020 08:451.9°C1.9°C1.9°C43.0%1028.0hPa0.0mm0.0km/hNW1.4km/h0uvi
20.02.2020 08:502.1°C2.3°C2.0°C42.0%1028.0hPa0.0mm0.1km/hNE3.6km/h0uvi
20.02.2020 08:552.5°C2.7°C2.4°C42.0%1028.0hPa0.0mm2.2km/hWSW4.0km/h0uvi
20.02.2020 09:002.8°C2.9°C2.7°C42.0%1028.0hPa0.0mm1.6km/hWSW5.0km/h0uvi
20.02.2020 09:053.1°C3.1°C3.0°C42.0%1028.0hPa0.0mm1.4km/hWSW4.7km/h0uvi
20.02.2020 09:103.3°C3.5°C3.1°C42.0%1028.0hPa0.0mm0.4km/hWSW1.8km/h0uvi
20.02.2020 09:153.8°C3.9°C3.7°C37.8%1028.5hPa0.0mm1.2km/hNW4.0km/h0uvi
20.02.2020 09:204.3°C4.4°C4.1°C35.5%1029.0hPa0.0mm0.9km/hNW2.5km/h0uvi
20.02.2020 09:254.4°C4.6°C4.1°C34.8%1029.0hPa0.0mm1.2km/hWSW4.0km/h0uvi
20.02.2020 09:304.8°C4.8°C4.6°C34.0%1028.2hPa0.0mm1.9km/hSSW3.6km/h1uvi
20.02.2020 09:355.1°C5.2°C5.0°C33.0%1028.0hPa0.0mm1.4km/hWSW4.0km/h1uvi
20.02.2020 09:405.1°C5.3°C5.0°C33.0%1028.0hPa0.0mm1.6km/hWSW4.0km/h1uvi
20.02.2020 09:455.5°C5.8°C5.2°C33.0%1028.0hPa0.0mm1.6km/hSSW4.3km/h1uvi
20.02.2020 09:505.6°C5.7°C5.5°C33.0%1028.0hPa0.0mm4.3km/hSSW8.6km/h1uvi
20.02.2020 09:555.7°C5.7°C5.6°C32.8%1028.0hPa0.0mm4.6km/hSSW6.5km/h1uvi
20.02.2020 10:005.5°C5.6°C5.5°C32.2%1028.0hPa0.0mm5.7km/hSSW9.7km/h1uvi
20.02.2020 10:055.7°C5.7°C5.6°C32.0%1028.0hPa0.0mm5.5km/hSSW6.8km/h1uvi
20.02.2020 10:106.0°C6.1°C5.8°C32.0%1028.0hPa0.0mm4.1km/hSSW9.0km/h1uvi
20.02.2020 10:156.1°C6.3°C6.0°C32.0%1028.0hPa0.0mm1.8km/hNW3.6km/h2uvi
20.02.2020 10:206.7°C6.9°C6.5°C32.0%1028.0hPa0.0mm2.2km/hSSW3.6km/h2uvi
20.02.2020 10:257.2°C7.3°C7.0°C31.0%1028.0hPa0.0mm2.6km/hSSW5.0km/h2uvi
20.02.2020 10:307.2°C7.4°C7.0°C29.4%1028.0hPa0.0mm1.8km/hWSW3.6km/h2uvi
20.02.2020 10:357.2°C7.3°C7.0°C29.0%1028.0hPa0.0mm3.3km/hSSW6.1km/h2uvi
20.02.2020 10:407.3°C7.5°C7.2°C29.0%1028.0hPa0.0mm2.4km/hNW4.3km/h2uvi
20.02.2020 10:457.3°C7.4°C7.1°C28.4%1028.0hPa0.0mm2.5km/hNW5.0km/h2uvi
20.02.2020 10:507.5°C7.6°C7.4°C29.0%1028.0hPa0.0mm2.0km/hNE4.0km/h2uvi
20.02.2020 10:557.9°C8.1°C7.6°C28.2%1028.0hPa0.0mm2.1km/hSSW5.8km/h2uvi
20.02.2020 11:007.9°C8.0°C7.8°C26.4%1028.0hPa0.0mm2.8km/hNE5.0km/h2uvi
20.02.2020 11:058.4°C8.4°C8.4°C26.7%1028.0hPa0.0mm1.8km/hWSW4.7km/h2uvi
20.02.2020 11:108.6°C8.8°C8.5°C26.0%1028.0hPa0.0mm3.0km/hSSW5.4km/h2uvi
20.02.2020 11:158.8°C8.9°C8.6°C26.0%1028.0hPa0.0mm1.6km/hNW4.7km/h2uvi
20.02.2020 11:208.6°C8.9°C8.4°C26.0%1028.0hPa0.0mm2.2km/hNW4.0km/h2uvi
20.02.2020 11:259.2°C9.3°C9.0°C25.0%1028.0hPa0.0mm1.8km/hWSW4.3km/h2uvi
20.02.2020 11:309.2°C9.3°C9.1°C25.0%1027.4hPa0.0mm1.5km/hWSW5.8km/h3uvi
20.02.2020 11:359.7°C10.0°C9.5°C24.2%1027.0hPa0.0mm0.8km/hSSW6.1km/h3uvi
20.02.2020 11:409.5°C9.8°C9.2°C24.2%1027.0hPa0.0mm4.5km/hSSE8.6km/h2uvi
20.02.2020 11:459.5°C9.5°C9.4°C24.0%1027.7hPa0.0mm2.9km/hWSW5.4km/h2uvi
20.02.2020 11:509.9°C10.1°C9.6°C24.0%1028.0hPa0.0mm2.2km/hSSW6.1km/h3uvi
20.02.2020 11:559.8°C9.8°C9.7°C24.0%1028.0hPa0.0mm2.6km/hNW6.1km/h3uvi
20.02.2020 12:009.7°C10.0°C9.5°C24.0%1027.3hPa0.0mm2.8km/hNW5.8km/h3uvi
20.02.2020 12:0510.0°C10.2°C9.9°C24.0%1027.0hPa0.0mm2.8km/hWNW5.8km/h3uvi
20.02.2020 12:1010.2°C10.4°C10.0°C24.0%1027.0hPa0.0mm3.8km/hWSW5.4km/h3uvi
20.02.2020 12:1510.5°C10.7°C10.3°C24.0%1027.0hPa0.0mm2.7km/hWSW5.8km/h3uvi
20.02.2020 12:2010.4°C10.6°C10.3°C24.0%1027.0hPa0.0mm3.5km/hWSW7.9km/h3uvi
20.02.2020 12:2510.4°C10.5°C10.4°C24.0%1027.0hPa0.0mm3.1km/hNW6.5km/h3uvi
20.02.2020 12:3010.6°C10.7°C10.6°C24.0%1027.0hPa0.0mm2.9km/hNW5.4km/h3uvi
20.02.2020 12:3510.7°C10.8°C10.7°C24.0%1027.0hPa0.0mm3.6km/hSSW6.8km/h3uvi
20.02.2020 12:4010.8°C10.8°C10.8°C24.0%1027.0hPa0.0mm2.3km/hWSW4.7km/h3uvi
20.02.2020 12:4510.9°C11.0°C10.9°C23.8%1026.3hPa0.0mm2.1km/hWSW5.0km/h3uvi
20.02.2020 12:5011.2°C11.2°C11.1°C23.0%1026.0hPa0.0mm1.9km/hSSE4.7km/h3uvi
20.02.2020 12:5511.3°C11.3°C11.3°C23.0%1026.0hPa0.0mm2.4km/hSSW4.7km/h3uvi
20.02.2020 13:0011.4°C11.5°C11.3°C23.0%1026.0hPa0.0mm2.5km/hSSE4.7km/h2uvi
20.02.2020 13:0511.4°C11.5°C11.4°C23.0%1026.0hPa0.0mm4.0km/hSSW6.1km/h2uvi
20.02.2020 13:1011.5°C11.6°C11.4°C23.0%1026.0hPa0.0mm3.1km/hSSE4.7km/h2uvi
20.02.2020 13:1511.7°C11.8°C11.6°C23.0%1026.7hPa0.0mm3.7km/hSSE5.4km/h2uvi
20.02.2020 13:2012.0°C12.0°C11.9°C23.0%1027.0hPa0.0mm2.3km/hSSE4.0km/h2uvi
20.02.2020 13:2512.1°C12.2°C12.0°C23.0%1027.0hPa0.0mm2.5km/hNE6.8km/h2uvi
20.02.2020 13:3012.5°C12.5°C12.4°C23.0%1026.9hPa0.0mm4.3km/hSSE8.6km/h3uvi
20.02.2020 13:3512.5°C12.5°C12.5°C23.0%1026.0hPa0.0mm3.9km/hNE6.1km/h3uvi
20.02.2020 13:4012.7°C12.8°C12.5°C23.0%1026.0hPa0.0mm3.6km/hSSE6.8km/h3uvi
20.02.2020 13:4512.8°C12.9°C12.6°C23.0%1026.0hPa0.0mm3.9km/hSSE6.8km/h3uvi
20.02.2020 13:5012.2°C12.4°C12.1°C23.0%1026.0hPa0.0mm2.9km/hNE7.9km/h3uvi
20.02.2020 13:5512.4°C12.5°C12.4°C23.0%1026.0hPa0.0mm1.7km/hSSE4.3km/h3uvi
20.02.2020 14:0012.5°C12.6°C12.4°C23.0%1025.4hPa0.0mm2.4km/hNE6.5km/h3uvi
20.02.2020 14:0512.2°C12.3°C12.0°C23.0%1025.0hPa0.0mm2.7km/hNE4.0km/h2uvi
20.02.2020 14:1012.5°C12.7°C12.3°C23.0%1025.0hPa0.0mm0.0km/hNE0.0km/h2uvi
20.02.2020 14:1512.9°C13.1°C12.8°C22.7%1025.0hPa0.0mm1.1km/hNE4.0km/h2uvi
20.02.2020 14:2012.9°C13.0°C12.7°C22.8%1025.0hPa0.0mm4.1km/hNE6.8km/h2uvi
20.02.2020 14:2512.7°C12.8°C12.7°C23.0%1025.0hPa0.0mm2.5km/hSSE5.8km/h2uvi
20.02.2020 14:3012.9°C12.9°C12.9°C23.0%1024.2hPa0.0mm2.8km/hSSE6.5km/h2uvi
20.02.2020 14:3512.9°C12.9°C12.8°C23.0%1024.0hPa0.0mm3.3km/hNE7.9km/h2uvi
20.02.2020 14:4012.7°C12.8°C12.7°C23.0%1024.0hPa0.0mm3.9km/hSSE6.8km/h1uvi
20.02.2020 14:4512.8°C12.8°C12.7°C23.0%1024.0hPa0.0mm4.0km/hNE9.0km/h1uvi
20.02.2020 14:5012.7°C12.7°C12.6°C23.0%1024.0hPa0.0mm3.0km/hSSE5.0km/h1uvi
20.02.2020 14:5512.8°C12.9°C12.7°C23.0%1024.0hPa0.0mm3.3km/hSSE6.8km/h1uvi
20.02.2020 15:0012.9°C12.9°C12.9°C23.0%1024.0hPa0.0mm3.8km/hSSE6.1km/h1uvi
20.02.2020 15:0513.0°C13.1°C12.9°C22.2%1024.0hPa0.0mm1.9km/hESE4.3km/h1uvi
20.02.2020 15:1013.1°C13.1°C13.1°C22.0%1024.0hPa0.0mm1.3km/hNE5.4km/h1uvi
20.02.2020 15:1513.1°C13.1°C13.1°C22.0%1024.0hPa0.0mm1.6km/hNE4.0km/h1uvi
20.02.2020 15:2013.2°C13.2°C13.2°C22.0%1024.0hPa0.0mm3.0km/hNE5.0km/h1uvi
20.02.2020 15:2513.2°C13.2°C13.2°C22.0%1024.0hPa0.0mm3.1km/hNE6.1km/h1uvi
20.02.2020 15:3013.0°C13.2°C12.9°C22.5%1023.3hPa0.0mm5.3km/hNE10.4km/h1uvi
20.02.2020 15:3512.9°C12.9°C12.9°C23.0%1023.0hPa0.0mm2.8km/hSSE6.5km/h1uvi
20.02.2020 15:4012.9°C12.9°C12.8°C23.0%1023.0hPa0.0mm4.2km/hNE8.6km/h0uvi
20.02.2020 15:4512.7°C12.8°C12.7°C23.0%1023.0hPa0.0mm2.9km/hENE6.5km/h0uvi
20.02.2020 15:5012.6°C12.7°C12.6°C23.0%1023.0hPa0.0mm2.0km/hENE6.1km/h0uvi
20.02.2020 15:5512.6°C12.7°C12.5°C23.0%1023.0hPa0.0mm2.3km/hNE6.1km/h0uvi
20.02.2020 16:0012.4°C12.4°C12.4°C23.0%1023.7hPa0.0mm2.3km/hNE4.7km/h0uvi
20.02.2020 16:0512.4°C12.4°C12.4°C23.0%1024.0hPa0.0mm2.0km/hESE6.5km/h0uvi
20.02.2020 16:1012.3°C12.3°C12.2°C23.0%1024.0hPa0.0mm2.5km/hSSE6.1km/h0uvi
20.02.2020 16:1512.1°C12.1°C12.0°C23.0%1024.0hPa0.0mm3.1km/hSSE5.4km/h0uvi
20.02.2020 16:2011.8°C11.9°C11.7°C23.0%1024.0hPa0.0mm1.3km/hSSE4.3km/h0uvi
20.02.2020 16:2511.4°C11.6°C11.3°C23.0%1024.0hPa0.0mm2.2km/hSSE3.6km/h0uvi
20.02.2020 16:3011.0°C11.2°C10.9°C23.5%1024.0hPa0.0mm1.1km/hSSE2.5km/h0uvi
20.02.2020 16:3510.6°C10.9°C10.3°C24.0%1024.0hPa0.0mm1.6km/hSSE4.0km/h0uvi
20.02.2020 16:4010.0°C10.1°C10.0°C24.0%1024.0hPa0.0mm2.8km/hSSE4.3km/h0uvi
20.02.2020 16:459.7°C9.8°C9.6°C24.0%1024.0hPa0.0mm2.2km/hSSE4.0km/h0uvi
20.02.2020 16:509.4°C9.5°C9.2°C24.0%1024.0hPa0.0mm3.0km/hSSE5.0km/h0uvi
20.02.2020 16:559.1°C9.1°C9.0°C24.0%1024.0hPa0.0mm3.4km/hSSE5.0km/h0uvi
20.02.2020 17:008.9°C8.9°C8.8°C24.8%1024.0hPa0.0mm3.4km/hSE5.8km/h0uvi
20.02.2020 17:058.7°C8.7°C8.6°C26.0%1024.0hPa0.0mm3.0km/hSSE4.3km/h0uvi
20.02.2020 17:108.6°C8.6°C8.6°C25.5%1024.0hPa0.0mm0.9km/hSSE3.2km/h0uvi
20.02.2020 17:158.6°C8.6°C8.5°C26.0%1024.0hPa0.0mm2.6km/hSSW4.0km/h0uvi
20.02.2020 17:208.5°C8.5°C8.4°C26.0%1024.0hPa0.0mm2.4km/hSSW4.3km/h0uvi
20.02.2020 17:258.4°C8.4°C8.4°C26.0%1024.0hPa0.0mm2.5km/hSSW5.4km/h0uvi
20.02.2020 17:308.5°C8.5°C8.4°C26.0%1024.0hPa0.0mm2.7km/hSSW4.3km/h0uvi
20.02.2020 17:358.3°C8.3°C8.3°C26.0%1024.0hPa0.0mm3.0km/hSSE4.3km/h0uvi
20.02.2020 17:408.2°C8.2°C8.1°C26.0%1024.0hPa0.0mm3.0km/hSSE4.3km/h0uvi
20.02.2020 17:458.0°C8.0°C7.9°C26.0%1024.6hPa0.0mm3.6km/hSSE5.0km/h0uvi
20.02.2020 17:507.8°C7.8°C7.8°C26.0%1025.0hPa0.0mm3.4km/hSSE5.0km/h0uvi
20.02.2020 17:557.8°C7.8°C7.8°C26.0%1025.0hPa0.0mm3.0km/hSSE5.4km/h0uvi
20.02.2020 18:007.8°C7.8°C7.7°C26.0%1025.0hPa0.0mm3.7km/hSSW6.5km/h0uvi
20.02.2020 18:057.7°C7.7°C7.7°C26.0%1025.0hPa0.0mm3.4km/hSSW5.8km/h0uvi
20.02.2020 18:107.5°C7.6°C7.5°C26.0%1025.0hPa0.0mm0.8km/hSSE2.5km/h0uvi
20.02.2020 18:157.4°C7.5°C7.3°C26.0%1025.0hPa0.0mm3.0km/hSSE6.5km/h0uvi
20.02.2020 18:207.2°C7.3°C7.2°C26.0%1025.0hPa0.0mm2.0km/hSSW4.7km/h0uvi
20.02.2020 18:257.1°C7.2°C7.0°C29.0%1025.0hPa0.0mm1.6km/hSSW4.0km/h0uvi
20.02.2020 18:306.9°C7.0°C6.9°C29.0%1025.0hPa0.0mm2.0km/hSSW3.2km/h0uvi
20.02.2020 18:356.8°C6.8°C6.8°C29.0%1025.0hPa0.0mm3.6km/hSSW6.1km/h0uvi
20.02.2020 18:406.7°C6.7°C6.7°C29.0%1025.0hPa0.0mm3.5km/hSSW5.0km/h0uvi
20.02.2020 18:456.7°C6.7°C6.7°C29.0%1025.7hPa0.0mm3.7km/hSSW6.5km/h0uvi
20.02.2020 18:506.7°C6.8°C6.7°C29.0%1026.0hPa0.0mm7.4km/hSSW13.0km/h0uvi
20.02.2020 18:556.7°C6.7°C6.7°C32.0%1026.0hPa0.0mm4.1km/hSSW7.9km/h0uvi
20.02.2020 19:006.6°C6.6°C6.5°C32.0%1026.0hPa0.0mm2.5km/hSSW5.4km/h0uvi
20.02.2020 19:056.5°C6.5°C6.4°C32.0%1026.0hPa0.0mm3.8km/hSSW6.1km/h0uvi
20.02.2020 19:106.4°C6.4°C6.4°C32.0%1026.0hPa0.0mm3.5km/hSSW6.1km/h0uvi
20.02.2020 19:156.4°C6.4°C6.4°C32.0%1026.0hPa0.0mm2.5km/hSSW4.3km/h0uvi
20.02.2020 19:206.3°C6.3°C6.3°C32.0%1026.0hPa0.0mm2.5km/hSSW5.8km/h0uvi
20.02.2020 19:256.1°C6.2°C6.0°C32.0%1026.0hPa0.0mm4.1km/hSSW6.5km/h0uvi
20.02.2020 19:306.0°C6.0°C5.9°C32.0%1026.0hPa0.0mm3.1km/hSSW5.0km/h0uvi
20.02.2020 19:355.9°C5.9°C5.8°C32.2%1026.0hPa0.0mm3.6km/hSSW6.8km/h0uvi
20.02.2020 19:405.7°C5.8°C5.7°C32.0%1026.0hPa0.0mm0.8km/hWSW3.2km/h0uvi
20.02.2020 19:455.7°C5.7°C5.6°C32.8%1025.3hPa0.0mm1.7km/hSSW5.0km/h0uvi
20.02.2020 19:505.6°C5.6°C5.6°C33.0%1025.0hPa0.0mm2.9km/hSSW4.7km/h0uvi
20.02.2020 19:555.5°C5.5°C5.5°C33.0%1025.0hPa0.0mm2.8km/hWSW4.7km/h0uvi
20.02.2020 20:005.4°C5.5°C5.4°C33.0%1025.5hPa0.0mm1.2km/hWSW2.5km/h0uvi
20.02.2020 20:055.4°C5.4°C5.4°C33.0%1026.0hPa0.0mm0.6km/hWSW4.0km/h0uvi
20.02.2020 20:105.3°C5.4°C5.3°C33.0%1026.0hPa0.0mm0.4km/hWSW2.2km/h0uvi
20.02.2020 20:155.1°C5.2°C5.0°C33.0%1025.3hPa0.0mm2.3km/hWSW4.3km/h0uvi
20.02.2020 20:204.8°C4.8°C4.7°C34.0%1025.0hPa0.0mm2.2km/hSSW4.0km/h0uvi
20.02.2020 20:254.6°C4.6°C4.5°C34.0%1025.0hPa0.0mm0.4km/hWSW2.2km/h0uvi
20.02.2020 20:304.4°C4.5°C4.4°C34.2%1025.5hPa0.0mm0.2km/hWNW2.5km/h0uvi
20.02.2020 20:354.4°C4.4°C4.4°C35.0%1026.0hPa0.0mm0.8km/hWNW2.5km/h0uvi
20.02.2020 20:404.3°C4.4°C4.1°C36.0%1026.0hPa0.0mm2.1km/hSSW4.0km/h0uvi
20.02.2020 20:454.0°C4.1°C3.9°C38.0%1026.0hPa0.0mm2.0km/hSSW3.2km/h0uvi
20.02.2020 20:503.9°C3.9°C3.8°C38.5%1026.0hPa0.0mm0.3km/hSSW1.8km/h0uvi
20.02.2020 20:553.8°C3.8°C3.7°C38.0%1026.0hPa0.0mm0.0km/hSSW1.4km/h0uvi
20.02.2020 21:003.7°C3.7°C3.7°C38.0%1026.0hPa0.0mm0.0km/hSSW1.8km/h0uvi
20.02.2020 21:053.6°C3.6°C3.6°C38.0%1026.0hPa0.0mm0.0km/hSSW0.0km/h0uvi
20.02.2020 21:103.6°C3.6°C3.6°C39.0%1026.0hPa0.0mm0.5km/hSSW2.5km/h0uvi
20.02.2020 21:153.4°C3.4°C3.3°C41.0%1026.0hPa0.0mm1.6km/hSSW2.5km/h
20.02.2020 21:203.2°C3.3°C3.2°C41.0%1026.0hPa0.0mm0.0km/hSSW0.0km/h0uvi
20.02.2020 21:253.2°C3.2°C3.2°C40.0%1026.0hPa0.0mm0.4km/hSSW1.8km/h0uvi
20.02.2020 21:303.1°C3.2°C3.1°C41.2%1026.0hPa0.0mm1.6km/hWSW3.2km/h0uvi
20.02.2020 21:353.0°C3.1°C3.0°C42.0%1026.0hPa0.0mm2.4km/hSSW4.0km/h0uvi
20.02.2020 21:403.0°C3.0°C3.0°C42.0%1026.0hPa0.0mm2.2km/hWSW3.2km/h0uvi
20.02.2020 21:453.0°C3.0°C2.9°C42.3%1026.0hPa0.0mm0.8km/hWSW3.2km/h0uvi
20.02.2020 21:502.8°C2.8°C2.8°C43.0%1026.0hPa0.0mm1.0km/hWSW3.6km/h0uvi
20.02.2020 21:552.6°C2.7°C2.6°C43.3%1026.0hPa0.0mm1.7km/hSSW3.2km/h0uvi
20.02.2020 22:002.4°C2.5°C2.4°C43.5%1026.0hPa0.0mm1.0km/hWSW2.5km/h0uvi
20.02.2020 22:052.3°C2.3°C2.3°C44.0%1026.0hPa0.0mm1.4km/hWSW3.2km/h0uvi
20.02.2020 22:102.3°C2.3°C2.3°C44.0%1026.0hPa0.0mm1.3km/hSSW2.5km/h0uvi
20.02.2020 22:152.3°C2.4°C2.3°C44.0%1025.3hPa0.0mm0.6km/hWSW2.5km/h0uvi
20.02.2020 22:202.4°C2.4°C2.4°C44.0%1025.0hPa0.0mm0.0km/hWSW0.0km/h0uvi
20.02.2020 22:252.4°C2.4°C2.4°C44.0%1025.0hPa0.0mm0.0km/hWSW1.8km/h0uvi
20.02.2020 22:302.5°C2.5°C2.4°C44.0%1025.7hPa0.0mm0.9km/hSSW2.5km/h0uvi
20.02.2020 22:352.4°C2.4°C2.4°C44.0%1026.0hPa0.0mm0.0km/hSSW0.0km/h0uvi
20.02.2020 22:402.4°C2.4°C2.4°C44.0%1026.0hPa0.0mm0.0km/hSSW2.2km/h0uvi
20.02.2020 22:452.5°C2.6°C2.5°C45.0%1026.0hPa0.0mm2.7km/hSSW5.0km/h0uvi
20.02.2020 22:502.6°C2.7°C2.6°C44.2%1026.0hPa0.0mm0.9km/hWSW2.5km/h0uvi
20.02.2020 22:552.4°C2.5°C2.2°C44.0%1026.0hPa0.0mm0.4km/hSSW2.2km/h0uvi
20.02.2020 23:002.1°C2.2°C2.1°C44.0%1026.0hPa0.0mm0.6km/hSSW3.2km/h0uvi
20.02.2020 23:052.0°C2.1°C2.0°C45.2%1026.0hPa0.0mm1.9km/hSSW3.6km/h0uvi
20.02.2020 23:102.0°C2.0°C2.0°C46.0%1026.0hPa0.0mm1.1km/hWSW4.3km/h0uvi
20.02.2020 23:151.9°C1.9°C1.9°C46.2%1026.0hPa0.0mm1.5km/hSSW3.2km/h0uvi
20.02.2020 23:201.9°C1.9°C1.9°C47.0%1026.0hPa0.0mm2.2km/hWSW3.2km/h0uvi
20.02.2020 23:252.0°C2.0°C1.9°C46.7%1026.0hPa0.0mm0.3km/hWSW0.0km/h0uvi
20.02.2020 23:301.8°C1.9°C1.7°C46.0%1026.8hPa0.0mm0.4km/hWSW3.2km/h0uvi
20.02.2020 23:351.6°C1.7°C1.4°C46.7%1027.0hPa0.0mm2.2km/hWSW3.6km/h0uvi
20.02.2020 23:401.3°C1.4°C1.3°C47.0%1027.0hPa0.0mm0.7km/hSSW2.5km/h0uvi
20.02.2020 23:451.2°C1.2°C1.1°C47.0%1026.3hPa0.0mm0.0km/hWSW1.8km/h0uvi
20.02.2020 23:501.1°C1.1°C1.0°C47.5%1026.0hPa0.0mm1.0km/hWSW2.2km/h0uvi
20.02.2020 23:550.9°C1.0°C0.9°C50.0%1026.0hPa0.0mm1.5km/hSSW4.0km/h0uvi
21.02.2020 00:000.8°C0.8°C0.8°C54.0%1026.0hPa0.0mm2.6km/hSSW4.0km/h0uvi
21.02.2020 00:050.9°C0.9°C0.8°C55.0%1026.0hPa0.0mm1.8km/hSSW2.5km/h0uvi
21.02.2020 00:101.0°C1.0°C1.0°C54.0%1026.0hPa0.0mm1.0km/hWSW3.2km/h0uvi
21.02.2020 00:151.1°C1.1°C1.1°C53.7%1026.0hPa0.0mm0.7km/hSSW2.5km/h0uvi
21.02.2020 00:201.1°C1.1°C1.1°C53.0%1026.0hPa0.0mm0.0km/hWSW0.0km/h0uvi
21.02.2020 00:251.1°C1.1°C1.0°C51.7%1026.0hPa0.0mm0.0km/hWSW2.5km/h0uvi
21.02.2020 00:300.9°C1.0°C0.9°C52.0%1025.3hPa0.0mm1.4km/hWSW3.2km/h0uvi
21.02.2020 00:350.8°C0.9°C0.8°C54.0%1025.0hPa0.0mm1.1km/hWSW2.5km/h0uvi
21.02.2020 00:401025.0hPa0.0mm0.0km/hWSW1.8km/h0uvi
21.02.2020 00:450.6°C0.7°C0.6°C53.0%1025.7hPa0.0mm0.7km/hWSW2.5km/h0uvi
21.02.2020 00:500.5°C0.5°C0.4°C53.0%1026.0hPa0.0mm0.3km/hWSW1.4km/h0uvi
21.02.2020 00:550.4°C0.4°C0.4°C53.0%1026.0hPa0.0mm0.0km/hWSW0.0km/h0uvi
21.02.2020 01:000.3°C0.4°C0.3°C54.0%1026.0hPa0.0mm0.6km/hWSW2.5km/h0uvi
21.02.2020 01:050.3°C0.4°C0.3°C57.0%1026.0hPa0.0mm2.9km/hSSW4.3km/h0uvi
21.02.2020 01:100.4°C0.4°C0.3°C58.0%1026.0hPa0.0mm2.4km/hSSW3.6km/h0uvi
21.02.2020 01:150.4°C0.4°C0.4°C57.2%1026.0hPa0.0mm0.2km/hSSW1.8km/h0uvi
21.02.2020 01:200.4°C0.4°C0.4°C56.0%1026.0hPa0.0mm0.3km/hNW2.5km/h0uvi
21.02.2020 01:250.5°C0.5°C0.4°C56.0%1026.0hPa0.0mm0.1km/hWSW2.2km/h0uvi
21.02.2020 01:300.5°C0.6°C0.5°C56.0%1026.0hPa0.0mm2.1km/hWSW4.0km/h0uvi
21.02.2020 01:350.4°C0.5°C0.3°C56.8%1026.0hPa0.0mm2.6km/hSSW4.3km/h0uvi
21.02.2020 01:400.3°C0.3°C0.3°C57.0%1026.0hPa0.0mm0.2km/hWSW1.8km/h0uvi
21.02.2020 01:450.3°C0.4°C0.3°C57.7%1025.3hPa0.0mm1.2km/hNW2.5km/h0uvi
21.02.2020 01:500.3°C0.4°C0.3°C57.4%1025.0hPa0.0mm0.4km/hWSW3.2km/h0uvi
21.02.2020 01:550.2°C0.3°C0.1°C58.2%1025.0hPa0.0mm2.3km/hSSE4.3km/h0uvi
21.02.2020 02:000.1°C0.1°C0.0°C57.8%1025.7hPa0.0mm0.9km/hSSW3.2km/h0uvi
21.02.2020 02:050.0°C0.0°C0.0°C57.0%1026.0hPa0.0mm0.1km/hSSW3.2km/h0uvi
21.02.2020 02:100.1°C0.1°C0.1°C57.0%1026.0hPa0.0mm0.8km/hSSW4.3km/h0uvi
21.02.2020 02:150.0°C0.1°C0.0°C58.6%1026.0hPa0.0mm3.8km/hSSW5.0km/h0uvi
21.02.2020 02:200.1°C0.1°C0.1°C59.2%1026.0hPa0.0mm1.8km/hSSW4.7km/h0uvi
21.02.2020 02:250.1°C0.1°C0.1°C58.0%1026.0hPa0.0mm0.6km/hNW2.5km/h0uvi
21.02.2020 02:300.2°C0.2°C0.1°C58.0%1025.3hPa0.0mm0.6km/hW2.5km/h0uvi
21.02.2020 02:350.2°C0.2°C0.2°C58.0%1025.0hPa0.0mm1.3km/hSSW3.6km/h0uvi
21.02.2020 02:400.1°C0.1°C0.1°C58.0%1025.0hPa0.0mm2.0km/hSSW3.6km/h0uvi
21.02.2020 02:450.1°C0.1°C0.1°C58.0%1025.9hPa0.0mm0.4km/hNW2.2km/h0uvi
21.02.2020 02:500.1°C0.1°C0.1°C58.0%1026.0hPa0.0mm0.9km/hSSW2.5km/h0uvi
21.02.2020 02:550.1°C0.2°C0.1°C58.0%1026.0hPa0.0mm1.6km/hSSW3.2km/h0uvi
21.02.2020 03:000.1°C0.1°C0.1°C58.0%1026.0hPa0.0mm1.2km/hWSW3.2km/h0uvi
21.02.2020 03:050.0°C0.0°C0.0°C58.0%1026.0hPa0.0mm1.1km/hWSW2.5km/h0uvi
21.02.2020 03:100.0°C0.1°C0.0°C58.0%1026.0hPa0.0mm1.0km/hSSW3.2km/h0uvi
21.02.2020 03:150.0°C0.0°C0.0°C58.0%1025.3hPa0.0mm1.8km/hSSW2.5km/h0uvi
21.02.2020 03:20-0.1°C0.0°C-0.1°C58.0%1025.0hPa0.0mm1.4km/hNW2.5km/h0uvi
21.02.2020 03:25-0.2°C-0.1°C-0.2°C58.0%1025.0hPa0.0mm1.0km/hNW2.2km/h0uvi
21.02.2020 03:30-0.2°C-0.1°C-0.2°C58.0%1025.0hPa0.0mm0.0km/hWSW2.2km/h0uvi
21.02.2020 03:35-0.1°C-0.1°C-0.2°C58.8%1025.0hPa0.0mm1.5km/hSSW2.5km/h0uvi
21.02.2020 03:40-0.2°C-0.2°C-0.3°C59.0%1025.0hPa0.0mm1.4km/hWSW3.6km/h0uvi
21.02.2020 03:45-0.3°C-0.3°C-0.3°C59.0%1025.0hPa0.0mm0.6km/hWSW2.5km/h0uvi
21.02.2020 03:50-0.3°C-0.3°C-0.4°C59.5%1025.0hPa0.0mm1.9km/hSSW3.2km/h0uvi
21.02.2020 03:55-0.3°C-0.3°C-0.4°C61.0%1025.0hPa0.0mm3.1km/hSSW5.0km/h0uvi
21.02.2020 04:00-0.3°C-0.3°C-0.3°C61.0%1024.3hPa0.0mm1.7km/hWSW4.3km/h0uvi
21.02.2020 04:05-0.4°C-0.4°C-0.4°C60.2%1024.0hPa0.0mm0.8km/hWSW3.6km/h0uvi
21.02.2020 04:10-0.4°C-0.4°C-0.5°C60.0%1024.0hPa0.0mm0.1km/hWSW2.5km/h0uvi
21.02.2020 04:15-0.5°C-0.5°C-0.5°C59.5%1025.0hPa0.0mm0.3km/hWSW2.2km/h0uvi
21.02.2020 04:20-0.5°C-0.4°C-0.5°C59.0%1025.0hPa0.0mm0.0km/hWSW0.0km/h0uvi
21.02.2020 04:25-0.3°C-0.2°C-0.3°C60.3%1025.0hPa0.0mm2.0km/hSSW5.8km/h0uvi
21.02.2020 04:30-0.1°C-0.1°C-0.1°C61.5%1025.0hPa0.0mm1.1km/hWSW5.4km/h0uvi
21.02.2020 04:35-0.1°C-0.1°C-0.1°C62.0%1025.0hPa0.0mm2.1km/hNW4.3km/h0uvi
21.02.2020 04:40-0.1°C-0.1°C-0.1°C61.0%1025.0hPa0.0mm2.1km/hWSW6.1km/h0uvi
21.02.2020 04:45-0.2°C-0.2°C-0.3°C60.2%1025.0hPa0.0mm3.2km/hWSW5.0km/h0uvi
21.02.2020 04:50-0.3°C-0.3°C-0.3°C60.0%1025.0hPa0.0mm0.4km/hWSW3.2km/h0uvi
21.02.2020 04:55-0.3°C-0.3°C-0.3°C60.0%1025.0hPa0.0mm0.1km/hWSW1.8km/h0uvi
21.02.2020 05:00-0.2°C-0.2°C-0.2°C60.0%1025.0hPa0.0mm0.6km/hWSW2.2km/h0uvi
21.02.2020 05:05-0.1°C-0.1°C-0.2°C60.8%1025.0hPa0.0mm2.3km/hWSW4.7km/h0uvi
21.02.2020 05:10-0.2°C-0.2°C-0.2°C60.0%1025.0hPa0.0mm1.0km/hSSW4.3km/h0uvi
21.02.2020 05:15-0.3°C-0.3°C-0.4°C60.0%1025.0hPa0.0mm1.1km/hWSW4.3km/h0uvi
21.02.2020 05:20-0.4°C-0.4°C-0.4°C60.0%1025.0hPa0.0mm0.0km/hNW2.2km/h0uvi
21.02.2020 06:00-0.6°C-0.5°C-0.8°C60.7%1024.6hPa0.0mm0.9km/hWSW4.3km/h0uvi
21.02.2020 06:05-0.9°C-0.9°C-0.9°C62.0%1025.0hPa0.0mm0.7km/hWSW4.3km/h0uvi
21.02.2020 06:10-0.9°C-0.9°C-1.0°C62.2%1025.0hPa0.0mm1.7km/hWSW5.4km/h0uvi
21.02.2020 06:15-1.0°C-1.0°C-1.0°C63.4%1025.0hPa0.0mm1.3km/hWSW4.7km/h0uvi
21.02.2020 06:20-1.0°C-1.0°C-1.0°C64.0%1025.0hPa0.0mm0.1km/hWSW1.4km/h0uvi
21.02.2020 06:25-0.9°C-0.9°C-1.0°C64.5%1025.0hPa0.0mm2.6km/hSSW4.0km/h0uvi
21.02.2020 06:30-1.0°C-1.0°C-1.0°C64.5%1025.0hPa0.0mm0.3km/hWSW3.2km/h0uvi
21.02.2020 06:35-1.0°C-1.0°C-1.0°C64.0%1025.0hPa0.0mm1.8km/hWSW3.2km/h0uvi
21.02.2020 06:40-1.0°C-1.0°C-1.1°C64.0%1025.0hPa0.0mm0.9km/hWSW2.5km/h0uvi
21.02.2020 06:45-1.1°C-1.1°C-1.2°C64.0%1025.7hPa0.0mm0.9km/hNW3.2km/h0uvi
21.02.2020 06:50-1.2°C-1.2°C-1.2°C64.0%1026.0hPa0.0mm0.3km/hWSW3.2km/h0uvi
21.02.2020 06:55-1.2°C-1.2°C-1.2°C64.0%1026.0hPa0.0mm0.0km/hWNW2.2km/h0uvi
21.02.2020 07:00-1.2°C-1.2°C-1.2°C64.0%1026.0hPa0.0mm0.2km/hNW2.2km/h0uvi
21.02.2020 07:05-1.2°C-1.2°C-1.2°C64.0%1026.0hPa0.0mm0.2km/hWSW0.0km/h0uvi
21.02.2020 07:10-1.2°C-1.2°C-1.2°C64.4%1026.0hPa0.0mm1.1km/hSSW3.2km/h0uvi
21.02.2020 07:15-1.2°C-1.2°C-1.2°C66.5%1026.0hPa0.0mm2.0km/hWSW3.6km/h0uvi
21.02.2020 07:20-1.2°C-1.2°C-1.2°C66.7%1026.0hPa0.0mm0.4km/hWSW2.5km/h0uvi
21.02.2020 07:25-1.1°C-1.1°C-1.2°C68.2%1026.0hPa0.0mm2.3km/hSSW3.6km/h0uvi
21.02.2020 07:30-1.1°C-1.1°C-1.1°C70.0%1026.0hPa0.0mm2.6km/hSSW4.0km/h0uvi
21.02.2020 07:35-1.1°C-1.0°C-1.1°C70.0%1026.0hPa0.0mm2.5km/hSSW4.0km/h0uvi
21.02.2020 07:40-1.1°C-1.0°C-1.1°C69.5%1026.0hPa0.0mm0.6km/hWSW3.2km/h0uvi
21.02.2020 07:45-1.0°C-1.0°C-1.0°C69.0%1026.0hPa0.0mm1.9km/hSSW3.2km/h0uvi
21.02.2020 07:50-1.0°C-1.0°C-1.0°C69.0%1026.0hPa0.0mm1.5km/hNW4.0km/h0uvi
21.02.2020 07:55-1.0°C-1.0°C-1.0°C68.7%1026.0hPa0.0mm0.1km/hWSW2.5km/h0uvi
21.02.2020 08:00-1.0°C-0.9°C-1.0°C68.5%1026.0hPa0.0mm2.3km/hSSW4.0km/h0uvi
21.02.2020 08:05-1.0°C-1.0°C-1.0°C69.0%1026.0hPa0.0mm1.7km/hWSW3.6km/h0uvi
21.02.2020 08:10-0.9°C-0.9°C-0.9°C69.2%1026.0hPa0.0mm3.0km/hSSW5.0km/h0uvi
21.02.2020 08:15-0.8°C-0.7°C-0.8°C70.0%1026.0hPa0.0mm1.1km/hSSW3.2km/h0uvi
21.02.2020 08:20-0.7°C-0.7°C-0.7°C70.0%1026.0hPa0.0mm2.1km/hSSW4.3km/h0uvi
21.02.2020 08:25-0.6°C-0.5°C-0.6°C70.0%1026.0hPa0.0mm2.7km/hNW5.4km/h0uvi
21.02.2020 08:30